sensor_id;sensor_type;location;lat;lon;timestamp;P1;durP1;ratioP1;P2;durP2;ratioP2
53775;SDS011;44276;49.534;6.378;2023-02-11T00:01:19;52.85;;;25.60;;
53775;SDS011;44276;49.534;6.378;2023-02-11T00:03:57;52.28;;;24.33;;
53775;SDS011;44276;49.534;6.378;2023-02-11T00:06:27;65.28;;;28.75;;
53775;SDS011;44276;49.534;6.378;2023-02-11T00:08:58;58.67;;;26.15;;
53775;SDS011;44276;49.534;6.378;2023-02-11T00:11:26;49.83;;;25.77;;
53775;SDS011;44276;49.534;6.378;2023-02-11T00:13:56;61.05;;;27.05;;
53775;SDS011;44276;49.534;6.378;2023-02-11T00:16:25;63.78;;;29.08;;
53775;SDS011;44276;49.534;6.378;2023-02-11T00:18:54;52.97;;;27.80;;
53775;SDS011;44276;49.534;6.378;2023-02-11T00:21:24;73.75;;;29.63;;
53775;SDS011;44276;49.534;6.378;2023-02-11T00:23:53;57.95;;;26.50;;
53775;SDS011;44276;49.534;6.378;2023-02-11T00:26:25;61.75;;;27.48;;
53775;SDS011;44276;49.534;6.378;2023-02-11T00:28:57;53.58;;;27.38;;
53775;SDS011;44276;49.534;6.378;2023-02-11T00:31:27;61.63;;;27.90;;
53775;SDS011;44276;49.534;6.378;2023-02-11T00:33:55;54.95;;;27.33;;
53775;SDS011;44276;49.534;6.378;2023-02-11T00:36:26;57.15;;;26.63;;
53775;SDS011;44276;49.534;6.378;2023-02-11T00:38:56;57.17;;;26.23;;
53775;SDS011;44276;49.534;6.378;2023-02-11T00:41:26;52.90;;;26.67;;
53775;SDS011;44276;49.534;6.378;2023-02-11T00:43:54;58.53;;;26.38;;
53775;SDS011;44276;49.534;6.378;2023-02-11T00:46:22;55.20;;;25.48;;
53775;SDS011;44276;49.534;6.378;2023-02-11T00:48:51;54.75;;;26.77;;
53775;SDS011;44276;49.534;6.378;2023-02-11T00:51:22;53.22;;;26.52;;
53775;SDS011;44276;49.534;6.378;2023-02-11T00:53:52;54.17;;;27.10;;
53775;SDS011;44276;49.534;6.378;2023-02-11T00:56:21;55.35;;;26.40;;
53775;SDS011;44276;49.534;6.378;2023-02-11T00:58:49;56.47;;;27.75;;
53775;SDS011;44276;49.534;6.378;2023-02-11T01:01:18;57.92;;;27.05;;
53775;SDS011;44276;49.534;6.378;2023-02-11T01:03:47;56.00;;;26.65;;
53775;SDS011;44276;49.534;6.378;2023-02-11T01:06:15;55.33;;;26.77;;
53775;SDS011;44276;49.534;6.378;2023-02-11T01:08:43;57.35;;;28.17;;
53775;SDS011;44276;49.534;6.378;2023-02-11T01:11:14;55.28;;;24.77;;
53775;SDS011;44276;49.534;6.378;2023-02-11T01:13:45;63.00;;;27.50;;
53775;SDS011;44276;49.534;6.378;2023-02-11T01:16:16;51.35;;;24.20;;
53775;SDS011;44276;49.534;6.378;2023-02-11T01:18:45;52.40;;;25.80;;
53775;SDS011;44276;49.534;6.378;2023-02-11T01:21:14;53.22;;;27.10;;
53775;SDS011;44276;49.534;6.378;2023-02-11T01:23:42;53.55;;;24.00;;
53775;SDS011;44276;49.534;6.378;2023-02-11T01:26:10;47.17;;;27.15;;
53775;SDS011;44276;49.534;6.378;2023-02-11T01:28:40;56.05;;;26.65;;
53775;SDS011;44276;49.534;6.378;2023-02-11T01:31:08;54.33;;;25.25;;
53775;SDS011;44276;49.534;6.378;2023-02-11T01:33:37;53.35;;;25.08;;
53775;SDS011;44276;49.534;6.378;2023-02-11T01:36:05;56.45;;;24.23;;
53775;SDS011;44276;49.534;6.378;2023-02-11T01:38:35;53.40;;;29.17;;
53775;SDS011;44276;49.534;6.378;2023-02-11T01:41:07;47.63;;;24.52;;
53775;SDS011;44276;49.534;6.378;2023-02-11T01:43:39;47.33;;;24.48;;
53775;SDS011;44276;49.534;6.378;2023-02-11T01:49:01;52.45;;;25.15;;
53775;SDS011;44276;49.534;6.378;2023-02-11T01:51:35;50.97;;;25.48;;
53775;SDS011;44276;49.534;6.378;2023-02-11T01:54:08;52.05;;;26.02;;
53775;SDS011;44276;49.534;6.378;2023-02-11T01:56:57;45.00;;;21.85;;
53775;SDS011;44276;49.534;6.378;2023-02-11T01:59:49;54.55;;;24.65;;
53775;SDS011;44276;49.534;6.378;2023-02-11T02:02:35;56.08;;;23.38;;
53775;SDS011;44276;49.534;6.378;2023-02-11T02:05:14;43.58;;;24.08;;
53775;SDS011;44276;49.534;6.378;2023-02-11T02:07:52;54.45;;;23.95;;
53775;SDS011;44276;49.534;6.378;2023-02-11T02:10:38;50.63;;;23.17;;
53775;SDS011;44276;49.534;6.378;2023-02-11T02:13:13;48.20;;;22.33;;
53775;SDS011;44276;49.534;6.378;2023-02-11T02:15:44;47.28;;;23.13;;
53775;SDS011;44276;49.534;6.378;2023-02-11T02:18:21;49.08;;;23.80;;
53775;SDS011;44276;49.534;6.378;2023-02-11T02:21:11;51.90;;;24.63;;
53775;SDS011;44276;49.534;6.378;2023-02-11T02:24:19;54.85;;;24.50;;
53775;SDS011;44276;49.534;6.378;2023-02-11T02:27:37;52.22;;;23.13;;
53775;SDS011;44276;49.534;6.378;2023-02-11T02:30:34;51.47;;;23.98;;
53775;SDS011;44276;49.534;6.378;2023-02-11T02:33:43;52.65;;;24.13;;
53775;SDS011;44276;49.534;6.378;2023-02-11T02:36:21;53.95;;;23.25;;
53775;SDS011;44276;49.534;6.378;2023-02-11T02:38:59;53.53;;;23.58;;
53775;SDS011;44276;49.534;6.378;2023-02-11T02:41:35;51.03;;;24.55;;
53775;SDS011;44276;49.534;6.378;2023-02-11T02:44:06;49.38;;;24.45;;
53775;SDS011;44276;49.534;6.378;2023-02-11T02:46:35;54.38;;;25.17;;
53775;SDS011;44276;49.534;6.378;2023-02-11T02:49:08;55.33;;;24.42;;
53775;SDS011;44276;49.534;6.378;2023-02-11T02:54:57;59.10;;;24.13;;
53775;SDS011;44276;49.534;6.378;2023-02-11T02:57:51;62.67;;;26.25;;
53775;SDS011;44276;49.534;6.378;2023-02-11T03:01:07;53.40;;;24.83;;
53775;SDS011;44276;49.534;6.378;2023-02-11T03:03:48;59.17;;;26.40;;
53775;SDS011;44276;49.534;6.378;2023-02-11T03:06:31;54.17;;;25.75;;
53775;SDS011;44276;49.534;6.378;2023-02-11T03:09:11;57.92;;;26.35;;
53775;SDS011;44276;49.534;6.378;2023-02-11T03:11:50;57.63;;;24.00;;
53775;SDS011;44276;49.534;6.378;2023-02-11T03:14:18;63.10;;;25.23;;
53775;SDS011;44276;49.534;6.378;2023-02-11T03:16:49;53.63;;;24.05;;
53775;SDS011;44276;49.534;6.378;2023-02-11T03:19:21;53.40;;;23.98;;
53775;SDS011;44276;49.534;6.378;2023-02-11T03:21:57;63.92;;;28.48;;
53775;SDS011;44276;49.534;6.378;2023-02-11T03:24:30;49.20;;;24.23;;
53775;SDS011;44276;49.534;6.378;2023-02-11T03:27:02;52.60;;;23.45;;
53775;SDS011;44276;49.534;6.378;2023-02-11T03:29:39;50.58;;;23.58;;
53775;SDS011;44276;49.534;6.378;2023-02-11T03:32:18;48.67;;;24.08;;
53775;SDS011;44276;49.534;6.378;2023-02-11T03:34:54;56.72;;;24.42;;
53775;SDS011;44276;49.534;6.378;2023-02-11T03:37:29;47.25;;;20.95;;
53775;SDS011;44276;49.534;6.378;2023-02-11T03:40:07;45.97;;;20.77;;
53775;SDS011;44276;49.534;6.378;2023-02-11T03:42:41;54.00;;;23.60;;
53775;SDS011;44276;49.534;6.378;2023-02-11T03:45:16;52.33;;;21.15;;
53775;SDS011;44276;49.534;6.378;2023-02-11T03:47:49;44.28;;;22.05;;
53775;SDS011;44276;49.534;6.378;2023-02-11T03:50:24;38.08;;;18.77;;
53775;SDS011;44276;49.534;6.378;2023-02-11T03:52:57;41.70;;;19.38;;
53775;SDS011;44276;49.534;6.378;2023-02-11T03:55:29;51.15;;;22.73;;
53775;SDS011;44276;49.534;6.378;2023-02-11T03:58:05;37.67;;;18.93;;
53775;SDS011;44276;49.534;6.378;2023-02-11T04:00:35;52.05;;;21.95;;
53775;SDS011;44276;49.534;6.378;2023-02-11T04:03:06;48.80;;;23.02;;
53775;SDS011;44276;49.534;6.378;2023-02-11T04:05:36;47.53;;;20.55;;
53775;SDS011;44276;49.534;6.378;2023-02-11T04:08:06;39.38;;;19.30;;
53775;SDS011;44276;49.534;6.378;2023-02-11T04:10:35;43.10;;;20.27;;
53775;SDS011;44276;49.534;6.378;2023-02-11T04:13:03;43.42;;;21.20;;
53775;SDS011;44276;49.534;6.378;2023-02-11T04:15:32;44.65;;;21.92;;
53775;SDS011;44276;49.534;6.378;2023-02-11T04:18:00;53.83;;;21.65;;
53775;SDS011;44276;49.534;6.378;2023-02-11T04:20:28;42.33;;;20.95;;
53775;SDS011;44276;49.534;6.378;2023-02-11T04:22:57;39.45;;;20.27;;
53775;SDS011;44276;49.534;6.378;2023-02-11T04:25:26;45.53;;;22.38;;
53775;SDS011;44276;49.534;6.378;2023-02-11T04:27:54;42.95;;;21.65;;
53775;SDS011;44276;49.534;6.378;2023-02-11T04:30:23;41.83;;;20.58;;
53775;SDS011;44276;49.534;6.378;2023-02-11T04:32:51;44.05;;;20.92;;
53775;SDS011;44276;49.534;6.378;2023-02-11T04:35:20;51.28;;;21.40;;
53775;SDS011;44276;49.534;6.378;2023-02-11T04:37:48;47.28;;;21.58;;
53775;SDS011;44276;49.534;6.378;2023-02-11T04:40:16;44.10;;;20.08;;
53775;SDS011;44276;49.534;6.378;2023-02-11T04:42:46;47.55;;;20.98;;
53775;SDS011;44276;49.534;6.378;2023-02-11T04:45:14;49.35;;;21.80;;
53775;SDS011;44276;49.534;6.378;2023-02-11T04:47:42;47.42;;;21.83;;
53775;SDS011;44276;49.534;6.378;2023-02-11T04:50:11;47.13;;;20.77;;
53775;SDS011;44276;49.534;6.378;2023-02-11T04:52:39;44.00;;;21.38;;
53775;SDS011;44276;49.534;6.378;2023-02-11T04:55:07;47.97;;;22.92;;
53775;SDS011;44276;49.534;6.378;2023-02-11T04:57:35;44.00;;;19.75;;
53775;SDS011;44276;49.534;6.378;2023-02-11T05:00:05;53.20;;;23.75;;
53775;SDS011;44276;49.534;6.378;2023-02-11T05:02:35;50.45;;;21.55;;
53775;SDS011;44276;49.534;6.378;2023-02-11T05:05:05;54.50;;;25.05;;
53775;SDS011;44276;49.534;6.378;2023-02-11T05:07:33;53.90;;;24.48;;
53775;SDS011;44276;49.534;6.378;2023-02-11T05:10:02;71.18;;;31.67;;
53775;SDS011;44276;49.534;6.378;2023-02-11T05:12:31;79.30;;;33.20;;
53775;SDS011;44276;49.534;6.378;2023-02-11T05:14:59;129.98;;;57.05;;
53775;SDS011;44276;49.534;6.378;2023-02-11T05:17:30;112.63;;;49.60;;
53775;SDS011;44276;49.534;6.378;2023-02-11T05:19:58;71.28;;;30.23;;
53775;SDS011;44276;49.534;6.378;2023-02-11T05:22:28;78.32;;;32.10;;
53775;SDS011;44276;49.534;6.378;2023-02-11T05:24:56;59.50;;;27.42;;
53775;SDS011;44276;49.534;6.378;2023-02-11T05:27:24;74.30;;;31.30;;
53775;SDS011;44276;49.534;6.378;2023-02-11T05:29:52;62.50;;;27.77;;
53775;SDS011;44276;49.534;6.378;2023-02-11T05:32:20;70.68;;;32.85;;
53775;SDS011;44276;49.534;6.378;2023-02-11T05:34:50;70.70;;;30.92;;
53775;SDS011;44276;49.534;6.378;2023-02-11T05:37:18;67.25;;;28.20;;
53775;SDS011;44276;49.534;6.378;2023-02-11T05:39:46;73.47;;;28.27;;
53775;SDS011;44276;49.534;6.378;2023-02-11T05:42:15;63.10;;;27.40;;
53775;SDS011;44276;49.534;6.378;2023-02-11T05:44:43;61.20;;;28.17;;
53775;SDS011;44276;49.534;6.378;2023-02-11T05:47:13;67.75;;;26.73;;
53775;SDS011;44276;49.534;6.378;2023-02-11T05:49:41;67.22;;;26.73;;
53775;SDS011;44276;49.534;6.378;2023-02-11T05:52:11;76.07;;;29.15;;
53775;SDS011;44276;49.534;6.378;2023-02-11T05:54:39;71.07;;;27.02;;
53775;SDS011;44276;49.534;6.378;2023-02-11T05:57:07;62.97;;;26.50;;
53775;SDS011;44276;49.534;6.378;2023-02-11T05:59:35;61.75;;;27.33;;
53775;SDS011;44276;49.534;6.378;2023-02-11T06:02:03;66.50;;;26.15;;
53775;SDS011;44276;49.534;6.378;2023-02-11T06:04:33;65.25;;;25.60;;
53775;SDS011;44276;49.534;6.378;2023-02-11T06:07:01;60.03;;;25.63;;
53775;SDS011;44276;49.534;6.378;2023-02-11T06:09:31;73.13;;;29.25;;
53775;SDS011;44276;49.534;6.378;2023-02-11T06:11:59;69.68;;;27.48;;
53775;SDS011;44276;49.534;6.378;2023-02-11T06:14:28;57.00;;;26.27;;
53775;SDS011;44276;49.534;6.378;2023-02-11T06:16:56;72.65;;;28.05;;
53775;SDS011;44276;49.534;6.378;2023-02-11T06:19:24;69.50;;;26.58;;
53775;SDS011;44276;49.534;6.378;2023-02-11T06:21:52;73.35;;;28.17;;
53775;SDS011;44276;49.534;6.378;2023-02-11T06:24:22;65.35;;;29.13;;
53775;SDS011;44276;49.534;6.378;2023-02-11T06:27:11;61.03;;;28.15;;
53775;SDS011;44276;49.534;6.378;2023-02-11T06:29:40;65.95;;;27.48;;
53775;SDS011;44276;49.534;6.378;2023-02-11T06:32:08;69.95;;;28.83;;
53775;SDS011;44276;49.534;6.378;2023-02-11T06:34:56;89.82;;;41.35;;
53775;SDS011;44276;49.534;6.378;2023-02-11T06:37:24;83.65;;;33.30;;
53775;SDS011;44276;49.534;6.378;2023-02-11T06:39:52;81.43;;;37.17;;
53775;SDS011;44276;49.534;6.378;2023-02-11T06:42:21;83.20;;;40.00;;
53775;SDS011;44276;49.534;6.378;2023-02-11T06:44:50;71.07;;;30.38;;
53775;SDS011;44276;49.534;6.378;2023-02-11T06:47:18;54.88;;;23.98;;
53775;SDS011;44276;49.534;6.378;2023-02-11T06:49:46;59.03;;;24.77;;
53775;SDS011;44276;49.534;6.378;2023-02-11T06:52:14;51.65;;;23.27;;
53775;SDS011;44276;49.534;6.378;2023-02-11T06:54:42;50.78;;;23.02;;
53775;SDS011;44276;49.534;6.378;2023-02-11T06:57:11;57.63;;;25.42;;
53775;SDS011;44276;49.534;6.378;2023-02-11T06:59:40;50.75;;;24.60;;
53775;SDS011;44276;49.534;6.378;2023-02-11T07:02:09;55.40;;;25.63;;
53775;SDS011;44276;49.534;6.378;2023-02-11T07:04:37;56.55;;;23.92;;
53775;SDS011;44276;49.534;6.378;2023-02-11T07:07:05;52.17;;;25.48;;
53775;SDS011;44276;49.534;6.378;2023-02-11T07:09:33;57.25;;;24.77;;
53775;SDS011;44276;49.534;6.378;2023-02-11T07:12:02;56.42;;;25.05;;
53775;SDS011;44276;49.534;6.378;2023-02-11T07:14:30;48.80;;;21.63;;
53775;SDS011;44276;49.534;6.378;2023-02-11T07:17:00;49.92;;;22.02;;
53775;SDS011;44276;49.534;6.378;2023-02-11T07:19:29;40.50;;;19.88;;
53775;SDS011;44276;49.534;6.378;2023-02-11T07:21:57;42.35;;;21.33;;
53775;SDS011;44276;49.534;6.378;2023-02-11T07:24:25;50.15;;;23.45;;
53775;SDS011;44276;49.534;6.378;2023-02-11T07:26:53;54.63;;;23.88;;
53775;SDS011;44276;49.534;6.378;2023-02-11T07:29:21;44.40;;;21.55;;
53775;SDS011;44276;49.534;6.378;2023-02-11T07:31:49;48.53;;;23.35;;
53775;SDS011;44276;49.534;6.378;2023-02-11T07:34:19;53.05;;;23.42;;
53775;SDS011;44276;49.534;6.378;2023-02-11T07:36:47;50.38;;;21.58;;
53775;SDS011;44276;49.534;6.378;2023-02-11T07:39:16;55.38;;;23.73;;
53775;SDS011;44276;49.534;6.378;2023-02-11T07:41:45;47.08;;;21.95;;
53775;SDS011;44276;49.534;6.378;2023-02-11T07:44:14;40.85;;;20.92;;
53775;SDS011;44276;49.534;6.378;2023-02-11T07:46:42;50.58;;;23.48;;
53775;SDS011;44276;49.534;6.378;2023-02-11T07:49:11;43.20;;;20.70;;
53775;SDS011;44276;49.534;6.378;2023-02-11T07:51:40;52.13;;;26.83;;
53775;SDS011;44276;49.534;6.378;2023-02-11T07:54:09;56.35;;;25.23;;
53775;SDS011;44276;49.534;6.378;2023-02-11T07:56:38;52.60;;;25.40;;
53775;SDS011;44276;49.534;6.378;2023-02-11T07:59:06;58.67;;;26.02;;
53775;SDS011;44276;49.534;6.378;2023-02-11T08:01:34;61.58;;;25.38;;
53775;SDS011;44276;49.534;6.378;2023-02-11T08:04:03;55.03;;;25.30;;
53775;SDS011;44276;49.534;6.378;2023-02-11T08:06:32;52.25;;;25.10;;
53775;SDS011;44276;49.534;6.378;2023-02-11T08:09:06;53.88;;;25.15;;
53775;SDS011;44276;49.534;6.378;2023-02-11T08:11:37;47.80;;;22.33;;
53775;SDS011;44276;49.534;6.378;2023-02-11T08:14:05;43.60;;;22.63;;
53775;SDS011;44276;49.534;6.378;2023-02-11T08:16:34;46.75;;;22.33;;
53775;SDS011;44276;49.534;6.378;2023-02-11T08:19:09;37.85;;;20.40;;
53775;SDS011;44276;49.534;6.378;2023-02-11T08:21:40;41.95;;;20.95;;
53775;SDS011;44276;49.534;6.378;2023-02-11T08:24:10;45.78;;;21.02;;
53775;SDS011;44276;49.534;6.378;2023-02-11T08:26:39;49.90;;;22.58;;
53775;SDS011;44276;49.534;6.378;2023-02-11T08:29:08;40.78;;;20.33;;
53775;SDS011;44276;49.534;6.378;2023-02-11T08:31:39;45.92;;;21.70;;
53775;SDS011;44276;49.534;6.378;2023-02-11T08:34:11;39.33;;;20.15;;
53775;SDS011;44276;49.534;6.378;2023-02-11T08:36:44;40.72;;;20.98;;
53775;SDS011;44276;49.534;6.378;2023-02-11T08:39:16;36.60;;;19.23;;
53775;SDS011;44276;49.534;6.378;2023-02-11T08:41:49;40.05;;;18.73;;
53775;SDS011;44276;49.534;6.378;2023-02-11T08:44:20;44.15;;;19.52;;
53775;SDS011;44276;49.534;6.378;2023-02-11T08:46:49;35.88;;;19.50;;
53775;SDS011;44276;49.534;6.378;2023-02-11T08:49:18;35.30;;;18.02;;
53775;SDS011;44276;49.534;6.378;2023-02-11T08:51:47;38.90;;;19.20;;
53775;SDS011;44276;49.534;6.378;2023-02-11T08:54:17;39.15;;;18.02;;
53775;SDS011;44276;49.534;6.378;2023-02-11T08:56:49;30.73;;;18.17;;
53775;SDS011;44276;49.534;6.378;2023-02-11T08:59:17;36.42;;;19.02;;
53775;SDS011;44276;49.534;6.378;2023-02-11T09:01:46;39.28;;;18.42;;
53775;SDS011;44276;49.534;6.378;2023-02-11T09:04:14;38.03;;;17.48;;
53775;SDS011;44276;49.534;6.378;2023-02-11T09:06:42;38.55;;;19.67;;
53775;SDS011;44276;49.534;6.378;2023-02-11T09:09:12;32.03;;;16.27;;
53775;SDS011;44276;49.534;6.378;2023-02-11T09:11:43;35.10;;;17.38;;
53775;SDS011;44276;49.534;6.378;2023-02-11T09:14:14;37.97;;;16.90;;
53775;SDS011;44276;49.534;6.378;2023-02-11T09:16:46;36.72;;;18.20;;
53775;SDS011;44276;49.534;6.378;2023-02-11T09:19:16;38.28;;;18.67;;
53775;SDS011;44276;49.534;6.378;2023-02-11T09:21:45;28.23;;;17.05;;
53775;SDS011;44276;49.534;6.378;2023-02-11T09:24:13;33.33;;;16.55;;
53775;SDS011;44276;49.534;6.378;2023-02-11T09:26:43;35.35;;;16.73;;
53775;SDS011;44276;49.534;6.378;2023-02-11T09:29:11;35.15;;;18.02;;
53775;SDS011;44276;49.534;6.378;2023-02-11T09:31:39;40.25;;;16.50;;
53775;SDS011;44276;49.534;6.378;2023-02-11T09:34:08;42.22;;;18.40;;
53775;SDS011;44276;49.534;6.378;2023-02-11T09:36:38;37.08;;;17.77;;
53775;SDS011;44276;49.534;6.378;2023-02-11T09:39:08;34.53;;;17.52;;
53775;SDS011;44276;49.534;6.378;2023-02-11T09:41:45;29.63;;;15.57;;
53775;SDS011;44276;49.534;6.378;2023-02-11T09:44:51;30.67;;;15.75;;
53775;SDS011;44276;49.534;6.378;2023-02-11T09:47:22;33.80;;;16.08;;
53775;SDS011;44276;49.534;6.378;2023-02-11T09:49:58;22.35;;;11.55;;
53775;SDS011;44276;49.534;6.378;2023-02-11T09:52:33;31.85;;;17.63;;
53775;SDS011;44276;49.534;6.378;2023-02-11T09:55:13;39.58;;;20.67;;
53775;SDS011;44276;49.534;6.378;2023-02-11T09:57:49;33.20;;;17.98;;
53775;SDS011;44276;49.534;6.378;2023-02-11T10:00:19;38.92;;;19.02;;
53775;SDS011;44276;49.534;6.378;2023-02-11T10:03:08;37.15;;;17.13;;
53775;SDS011;44276;49.534;6.378;2023-02-11T10:06:12;36.13;;;17.23;;
53775;SDS011;44276;49.534;6.378;2023-02-11T10:09:12;32.85;;;15.13;;
53775;SDS011;44276;49.534;6.378;2023-02-11T10:12:10;34.17;;;16.70;;
53775;SDS011;44276;49.534;6.378;2023-02-11T10:15:00;34.38;;;17.92;;
53775;SDS011;44276;49.534;6.378;2023-02-11T10:20:55;29.58;;;15.00;;
53775;SDS011;44276;49.534;6.378;2023-02-11T10:23:38;32.97;;;16.98;;
53775;SDS011;44276;49.534;6.378;2023-02-11T10:26:13;35.40;;;16.17;;
53775;SDS011;44276;49.534;6.378;2023-02-11T10:28:45;35.53;;;17.75;;
53775;SDS011;44276;49.534;6.378;2023-02-11T10:31:20;33.38;;;15.85;;
53775;SDS011;44276;49.534;6.378;2023-02-11T10:33:55;45.50;;;19.52;;
53775;SDS011;44276;49.534;6.378;2023-02-11T10:36:30;31.35;;;14.23;;
53775;SDS011;44276;49.534;6.378;2023-02-11T10:39:08;37.60;;;16.88;;
53775;SDS011;44276;49.534;6.378;2023-02-11T10:41:40;30.27;;;15.05;;
53775;SDS011;44276;49.534;6.378;2023-02-11T10:44:18;33.33;;;16.63;;
53775;SDS011;44276;49.534;6.378;2023-02-11T10:46:55;34.13;;;17.17;;
53775;SDS011;44276;49.534;6.378;2023-02-11T10:49:32;29.35;;;15.43;;
53775;SDS011;44276;49.534;6.378;2023-02-11T10:52:14;30.10;;;16.77;;
53775;SDS011;44276;49.534;6.378;2023-02-11T10:54:55;44.95;;;17.98;;
53775;SDS011;44276;49.534;6.378;2023-02-11T10:57:28;42.67;;;19.67;;
53775;SDS011;44276;49.534;6.378;2023-02-11T11:00:04;36.10;;;17.38;;
53775;SDS011;44276;49.534;6.378;2023-02-11T11:02:55;36.28;;;17.40;;
53775;SDS011;44276;49.534;6.378;2023-02-11T11:05:28;37.40;;;14.85;;
53775;SDS011;44276;49.534;6.378;2023-02-11T11:08:01;31.95;;;16.83;;
53775;SDS011;44276;49.534;6.378;2023-02-11T11:10:34;31.63;;;16.75;;
53775;SDS011;44276;49.534;6.378;2023-02-11T11:13:22;33.58;;;17.00;;
53775;SDS011;44276;49.534;6.378;2023-02-11T11:16:06;40.33;;;17.08;;
53775;SDS011;44276;49.534;6.378;2023-02-11T11:18:50;35.28;;;17.25;;
53775;SDS011;44276;49.534;6.378;2023-02-11T11:21:40;35.10;;;17.10;;
53775;SDS011;44276;49.534;6.378;2023-02-11T11:24:15;38.80;;;18.50;;
53775;SDS011;44276;49.534;6.378;2023-02-11T11:26:48;33.45;;;17.23;;
53775;SDS011;44276;49.534;6.378;2023-02-11T11:29:20;36.10;;;17.27;;
53775;SDS011;44276;49.534;6.378;2023-02-11T11:31:54;44.65;;;19.83;;
53775;SDS011;44276;49.534;6.378;2023-02-11T11:34:28;34.85;;;16.55;;
53775;SDS011;44276;49.534;6.378;2023-02-11T11:37:08;36.20;;;18.02;;
53775;SDS011;44276;49.534;6.378;2023-02-11T11:39:40;35.58;;;18.05;;
53775;SDS011;44276;49.534;6.378;2023-02-11T11:42:21;32.78;;;15.82;;
53775;SDS011;44276;49.534;6.378;2023-02-11T11:44:55;41.40;;;18.45;;
53775;SDS011;44276;49.534;6.378;2023-02-11T11:47:28;38.53;;;17.17;;
53775;SDS011;44276;49.534;6.378;2023-02-11T11:50:10;38.25;;;18.75;;
53775;SDS011;44276;49.534;6.378;2023-02-11T11:52:53;33.70;;;16.75;;
53775;SDS011;44276;49.534;6.378;2023-02-11T11:55:30;38.35;;;16.98;;
53775;SDS011;44276;49.534;6.378;2023-02-11T11:58:09;35.70;;;17.73;;
53775;SDS011;44276;49.534;6.378;2023-02-11T12:00:45;34.22;;;16.50;;
53775;SDS011;44276;49.534;6.378;2023-02-11T12:03:39;32.63;;;15.27;;
53775;SDS011;44276;49.534;6.378;2023-02-11T12:06:59;36.55;;;16.52;;
53775;SDS011;44276;49.534;6.378;2023-02-11T12:09:44;35.75;;;15.80;;
53775;SDS011;44276;49.534;6.378;2023-02-11T12:12:33;30.63;;;15.95;;
53775;SDS011;44276;49.534;6.378;2023-02-11T12:15:20;33.22;;;15.48;;
53775;SDS011;44276;49.534;6.378;2023-02-11T12:18:05;33.30;;;16.33;;
53775;SDS011;44276;49.534;6.378;2023-02-11T12:21:00;35.17;;;15.85;;
53775;SDS011;44276;49.534;6.378;2023-02-11T12:23:55;36.33;;;17.17;;
53775;SDS011;44276;49.534;6.378;2023-02-11T12:26:43;37.65;;;15.93;;
53775;SDS011;44276;49.534;6.378;2023-02-11T12:29:21;34.83;;;17.23;;
53775;SDS011;44276;49.534;6.378;2023-02-11T12:32:06;36.22;;;17.13;;
53775;SDS011;44276;49.534;6.378;2023-02-11T12:40:56;37.42;;;14.43;;
53775;SDS011;44276;49.534;6.378;2023-02-11T12:43:43;33.67;;;16.58;;
53775;SDS011;44276;49.534;6.378;2023-02-11T12:46:15;30.35;;;14.05;;
53775;SDS011;44276;49.534;6.378;2023-02-11T12:49:06;33.45;;;16.17;;
53775;SDS011;44276;49.534;6.378;2023-02-11T12:52:05;31.85;;;13.77;;
53775;SDS011;44276;49.534;6.378;2023-02-11T12:54:52;34.05;;;13.82;;
53775;SDS011;44276;49.534;6.378;2023-02-11T12:57:28;27.17;;;14.38;;
53775;SDS011;44276;49.534;6.378;2023-02-11T13:00:02;25.95;;;13.02;;
53775;SDS011;44276;49.534;6.378;2023-02-11T13:02:40;31.52;;;14.25;;
53775;SDS011;44276;49.534;6.378;2023-02-11T13:05:22;27.15;;;13.05;;
53775;SDS011;44276;49.534;6.378;2023-02-11T13:07:57;26.88;;;14.23;;
53775;SDS011;44276;49.534;6.378;2023-02-11T13:10:34;28.75;;;15.35;;
53775;SDS011;44276;49.534;6.378;2023-02-11T13:13:09;29.48;;;13.52;;
53775;SDS011;44276;49.534;6.378;2023-02-11T13:15:46;37.35;;;14.70;;
53775;SDS011;44276;49.534;6.378;2023-02-11T13:18:28;22.95;;;12.65;;
53775;SDS011;44276;49.534;6.378;2023-02-11T13:21:15;31.13;;;14.07;;
53775;SDS011;44276;49.534;6.378;2023-02-11T13:23:59;27.50;;;12.70;;
53775;SDS011;44276;49.534;6.378;2023-02-11T13:26:41;29.52;;;13.07;;
53775;SDS011;44276;49.534;6.378;2023-02-11T13:29:24;28.33;;;11.90;;
53775;SDS011;44276;49.534;6.378;2023-02-11T13:32:06;33.38;;;13.85;;
53775;SDS011;44276;49.534;6.378;2023-02-11T13:37:22;23.65;;;11.95;;
53775;SDS011;44276;49.534;6.378;2023-02-11T13:39:57;26.55;;;13.02;;
53775;SDS011;44276;49.534;6.378;2023-02-11T13:42:28;28.33;;;11.95;;
53775;SDS011;44276;49.534;6.378;2023-02-11T13:45:21;25.10;;;11.38;;
53775;SDS011;44276;49.534;6.378;2023-02-11T13:47:59;29.55;;;13.30;;
53775;SDS011;44276;49.534;6.378;2023-02-11T13:50:31;22.27;;;11.15;;
53775;SDS011;44276;49.534;6.378;2023-02-11T13:53:12;25.77;;;12.60;;
53775;SDS011;44276;49.534;6.378;2023-02-11T13:55:43;27.95;;;12.55;;
53775;SDS011;44276;49.534;6.378;2023-02-11T14:01:06;25.10;;;11.40;;
53775;SDS011;44276;49.534;6.378;2023-02-11T14:03:35;25.10;;;11.90;;
53775;SDS011;44276;49.534;6.378;2023-02-11T14:06:24;26.50;;;11.52;;
53775;SDS011;44276;49.534;6.378;2023-02-11T14:12:20;20.65;;;10.68;;
53775;SDS011;44276;49.534;6.378;2023-02-11T14:17:57;23.23;;;11.10;;
53775;SDS011;44276;49.534;6.378;2023-02-11T14:20:36;23.70;;;10.65;;
53775;SDS011;44276;49.534;6.378;2023-02-11T14:23:24;21.77;;;9.90;;
53775;SDS011;44276;49.534;6.378;2023-02-11T14:25:56;28.77;;;11.90;;
53775;SDS011;44276;49.534;6.378;2023-02-11T14:28:45;16.33;;;9.23;;
53775;SDS011;44276;49.534;6.378;2023-02-11T14:31:17;21.67;;;10.80;;
53775;SDS011;44276;49.534;6.378;2023-02-11T14:33:57;29.00;;;13.07;;
53775;SDS011;44276;49.534;6.378;2023-02-11T14:36:50;48.97;;;24.88;;
53775;SDS011;44276;49.534;6.378;2023-02-11T14:39:32;35.08;;;12.38;;
53775;SDS011;44276;49.534;6.378;2023-02-11T14:42:23;23.13;;;10.55;;
53775;SDS011;44276;49.534;6.378;2023-02-11T14:44:57;23.80;;;10.95;;
53775;SDS011;44276;49.534;6.378;2023-02-11T14:47:33;19.52;;;9.25;;
53775;SDS011;44276;49.534;6.378;2023-02-11T14:50:14;22.70;;;10.60;;
53775;SDS011;44276;49.534;6.378;2023-02-11T14:52:49;24.15;;;10.75;;
53775;SDS011;44276;49.534;6.378;2023-02-11T14:55:23;23.20;;;12.68;;
53775;SDS011;44276;49.534;6.378;2023-02-11T14:58:05;27.23;;;11.60;;
53775;SDS011;44276;49.534;6.378;2023-02-11T15:00:49;27.92;;;12.10;;
53775;SDS011;44276;49.534;6.378;2023-02-11T15:03:25;24.42;;;12.80;;
53775;SDS011;44276;49.534;6.378;2023-02-11T15:06:01;28.08;;;12.15;;
53775;SDS011;44276;49.534;6.378;2023-02-11T15:08:34;27.02;;;12.50;;
53775;SDS011;44276;49.534;6.378;2023-02-11T15:11:09;29.70;;;15.07;;
53775;SDS011;44276;49.534;6.378;2023-02-11T15:13:41;38.85;;;14.90;;
53775;SDS011;44276;49.534;6.378;2023-02-11T15:16:12;30.92;;;15.93;;
53775;SDS011;44276;49.534;6.378;2023-02-11T15:18:47;32.08;;;13.95;;
53775;SDS011;44276;49.534;6.378;2023-02-11T15:21:20;33.22;;;14.40;;
53775;SDS011;44276;49.534;6.378;2023-02-11T15:23:58;34.08;;;17.10;;
53775;SDS011;44276;49.534;6.378;2023-02-11T15:26:31;27.80;;;14.02;;
53775;SDS011;44276;49.534;6.378;2023-02-11T15:29:00;25.38;;;12.10;;
53775;SDS011;44276;49.534;6.378;2023-02-11T15:31:28;28.33;;;13.52;;